Latest Weather Observations for West Roebuck

IDW60801

Issued at 8:02 am WST Sunday 21 December 2014 (issued every 30 minutes, with the page automatically refreshed every 10 minutes)

About weather observations | Map of weather stations | Latest weather observations for WA | Other Formats
Station Details ID: 003096 Name: WEST ROEBUCK Lat: -17.90 Lon: 122.31 Height: 32.0 m
Data from the previous 72 hours. | See also: Recent months for locations in Western Australia
Date/Time
WST
Temp
°C
App
Temp
°C
Dew
Point
Rel
Hum
%
Delta-T
°C
Wind Press
QNH
hPa
Press
MSL
hPa
Rain
since 9 am
mm
Dir
 
Spd
km/h
Gust
km/h
Spd
kts
Gust
kts
21/08:00am 29.4 - - - - SE 9 11 5 6 - - -
21/07:30am 28.8 - - - - ESE 11 15 6 8 - - 12.6
21/07:00am 28.0 - - - - SSE 9 13 5 7 - - 12.6
21/06:30am 27.0 - - - - CALM 0 0 0 0 - - 12.6
21/06:00am 26.6 - - - - CALM 0 0 0 0 - - 12.6
21/05:30am 26.0 - - - - CALM 0 0 0 0 - - 12.6
21/05:00am 26.0 - - - - CALM 0 0 0 0 - - 12.6
21/04:30am 26.0 - - - - NW 6 7 3 4 - - 12.6
21/04:00am 26.0 - - - - NW 7 7 4 4 - - 12.6
21/03:30am 25.9 - - - - WNW 7 9 4 5 - - 12.6
21/03:00am 26.1 - - - - N 2 9 1 5 - - 12.6
21/02:30am 26.1 - - - - N 4 6 2 3 - - 12.6
21/02:00am 26.3 - - - - CALM 0 0 0 0 - - 12.6
21/01:30am 26.2 - - - - NNE 2 6 1 3 - - 12.6
21/01:00am 26.1 - - - - NE 6 7 3 4 - - 12.6
21/12:30am 26.2 - - - - NE 4 6 2 3 - - 12.6
21/12:00am 26.1 - - - - NE 9 13 5 7 - - 12.6
 
Date/Time
WST
Temp
°C
App
Temp
°C
Dew
Point
Rel
Hum
%
Delta-T
°C
Wind Press
QNH
hPa
Press
MSL
hPa
Rain
since 9 am
mm
Dir
 
Spd
km/h
Gust
km/h
Spd
kts
Gust
kts
20/11:30pm 25.9 - - - - NE 7 9 4 5 - - 12.6
20/11:00pm 26.0 - - - - ENE 9 11 5 6 - - 12.6
20/10:30pm 26.2 - - - - E 7 9 4 5 - - 12.6
20/10:00pm 26.6 - - - - E 4 7 2 4 - - 12.4
20/09:30pm 26.7 - - - - NNE 7 7 4 4 - - 12.4
20/09:00pm 26.7 - - - - CALM 0 0 0 0 - - 12.4
20/08:30pm 26.7 - - - - ENE 9 11 5 6 - - 12.4
20/08:00pm 27.0 - - - - CALM 0 0 0 0 - - 12.4
20/07:30pm 27.1 - - - - SW 6 7 3 4 - - 12.4
20/07:00pm 27.3 - - - - SSW 6 7 3 4 - - 12.4
20/06:30pm 27.3 - - - - SSW 7 11 4 6 - - 12.4
20/06:00pm 27.1 - - - - SW 9 13 5 7 - - 12.4
20/05:30pm 27.1 - - - - SW 11 13 6 7 - - 12.4
20/05:00pm 26.8 - - - - WSW 11 15 6 8 - - 12.4
20/04:30pm 26.6 - - - - SW 11 17 6 9 - - 12.4
20/04:00pm 26.8 - - - - N 6 7 3 4 - - 12.4
20/03:30pm 26.2 - - - - SE 4 7 2 4 - - 12.4
20/03:00pm 25.5 - - - - NE 11 20 6 11 - - 12.4
20/02:30pm 25.3 - - - - NE 20 28 11 15 - - 12.2
20/02:00pm 24.9 - - - - NNE 24 37 13 20 - - 12.0
20/01:30pm 24.7 - - - - N 22 35 12 19 - - 11.4
20/01:00pm 25.6 - - - - NE 20 30 11 16 - - 11.0
20/12:33pm 26.8 - - - - E 33 57 18 31 - - 0.6
20/12:30pm 28.1 - - - - E 30 50 16 27 - - 0.0
20/12:13pm 30.8 - - - - ESE 26 50 14 27 - - 0.0
20/12:08pm 32.8 - - - - SE 17 44 9 24 - - 0.0
20/12:00pm 37.3 - - - - SE 13 20 7 11 - - 0.0
20/11:30am 35.3 - - - - SW 13 22 7 12 - - 0.0
20/11:00am 36.2 - - - - S 11 26 6 14 - - 0.0
20/10:30am 35.4 - - - - SW 11 20 6 11 - - 0.0
20/10:00am 34.6 - - - - SSW 9 17 5 9 - - 0.0
20/09:30am 33.5 - - - - SSW 11 17 6 9 - - 0.0
20/09:00am 32.9 - - - - SSW 13 19 7 10 - - 0.0
20/08:30am 32.2 - - - - SSW 13 17 7 9 - - 0.0
20/08:00am 30.8 - - - - SSW 15 19 8 10 - - 0.0
20/07:30am 30.3 - - - - S 13 19 7 10 - - 0.0
20/07:00am 29.9 - - - - SSW 13 20 7 11 - - 0.0
20/06:30am 29.9 - - - - S 11 17 6 9 - - 0.0
20/06:00am 28.7 - - - - SSW 9 13 5 7 - - 0.0
20/05:30am 28.0 - - - - SSW 7 9 4 5 - - 0.0
20/05:00am 28.2 - - - - SW 6 7 3 4 - - 0.0
20/04:30am 28.5 - - - - SW 6 7 3 4 - - 0.0
20/04:00am 28.5 - - - - SW 7 9 4 5 - - 0.0
20/03:30am 28.5 - - - - SW 7 9 4 5 - - 0.0
20/03:00am 28.3 - - - - SSW 6 9 3 5 - - 0.0
20/02:30am 28.5 - - - - SW 7 11 4 6 - - 0.0
20/02:00am 28.1 - - - - SW 9 11 5 6 - - 0.0
20/01:30am 27.9 - - - - SSW 4 9 2 5 - - 0.0
20/01:00am 27.6 - - - - SW 9 11 5 6 - - 0.0
20/12:30am 27.2 - - - - WSW 6 9 3 5 - - 0.0
20/12:00am 27.7 - - - - W 7 7 4 4 - - 0.0
 
Date/Time
WST
Temp
°C
App
Temp
°C
Dew
Point
Rel
Hum
%
Delta-T
°C
Wind Press
QNH
hPa
Press
MSL
hPa
Rain
since 9 am
mm
Dir
 
Spd
km/h
Gust
km/h
Spd
kts
Gust
kts
19/11:30pm 27.9 - - - - W 7 9 4 5 - - 0.0
19/11:00pm 28.2 - - - - W 7 9 4 5 - - 0.0
19/10:30pm 28.4 - - - - W 9 9 5 5 - - 0.0
19/10:00pm 28.9 - - - - WNW 7 9 4 5 - - 0.0
19/09:30pm 29.2 - - - - W 7 9 4 5 - - 0.0
19/09:00pm 29.4 - - - - WNW 7 9 4 5 - - 0.0
19/08:30pm 29.5 - - - - WSW 9 13 5 7 - - 0.0
19/08:00pm 29.7 - - - - W 7 11 4 6 - - 0.0
19/07:30pm 29.9 - - - - W 9 13 5 7 - - 0.0
19/07:00pm 30.0 - - - - W 13 17 7 9 - - 0.0
19/06:30pm 30.4 - - - - W 13 17 7 9 - - 0.0
19/06:00pm 31.0 - - - - W 17 22 9 12 - - 0.0
19/05:30pm 32.6 - - - - W 13 19 7 10 - - 0.0
19/05:00pm 33.3 - - - - WNW 15 24 8 13 - - 0.0
19/04:30pm 34.5 - - - - W 15 20 8 11 - - 0.0
19/04:00pm 35.6 - - - - E 11 17 6 9 - - 0.0
19/03:30pm 35.8 - - - - E 11 20 6 11 - - 0.0
19/03:00pm 35.7 - - - - E 9 13 5 7 - - 0.0
19/02:30pm 35.3 - - - - E 15 22 8 12 - - 0.0
19/02:00pm 35.3 - - - - E 15 24 8 13 - - 0.0
19/01:30pm 36.4 - - - - NNE 6 11 3 6 - - 0.0
19/01:00pm 34.9 - - - - SSE 11 20 6 11 - - 0.0
19/12:30pm 36.4 - - - - S 13 20 7 11 - - 0.0
19/12:00pm 35.9 - - - - SSW 11 19 6 10 - - 0.0
19/11:30am 34.2 - - - - S 9 13 5 7 - - 0.0
19/11:00am 33.9 - - - - SW 9 13 5 7 - - 0.0
19/10:30am 33.0 - - - - WSW 7 11 4 6 - - 0.0
19/10:00am 32.7 - - - - SSW 6 11 3 6 - - 0.0
19/09:30am 32.4 - - - - SSE 11 17 6 9 - - 0.0
19/09:00am 33.3 - - - - SE 9 17 5 9 - - 0.0
19/08:30am 33.0 - - - - SE 11 17 6 9 - - 0.0
19/08:00am 31.4 - - - - ESE 9 13 5 7 - - 0.0
19/07:30am 29.4 - - - - SE 9 15 5 8 - - 0.0
19/07:00am 28.8 - - - - NW 6 9 3 5 - - 0.0
19/06:30am 27.8 - - - - NNW 7 9 4 5 - - 0.0
19/06:00am 26.8 - - - - NW 6 9 3 5 - - 0.0
19/05:30am 26.1 - - - - NNW 7 9 4 5 - - 0.0
19/05:00am 26.4 - - - - SW 9 13 5 7 - - 0.0
19/04:30am 25.9 - - - - SSE 13 22 7 12 - - 0.0
19/04:00am 25.4 - - - - ESE 17 26 9 14 - - 0.0
19/03:30am 24.8 - - - - SE 9 11 5 6 - - 0.0
19/03:00am 24.8 - - - - SSW 9 11 5 6 - - 0.0
19/02:30am 24.7 - - - - SW 9 9 5 5 - - 0.0
19/02:00am 24.8 - - - - E 4 6 2 3 - - 0.0
19/01:30am 25.4 - - - - NNW 4 6 2 3 - - 0.0
19/01:00am 26.1 - - - - NNW 6 7 3 4 - - 0.0
19/12:30am 26.7 - - - - N 7 11 4 6 - - 0.0
19/12:00am 27.1 - - - - NNE 11 17 6 9 - - 0.0
 
Date/Time
WST
Temp
°C
App
Temp
°C
Dew
Point
Rel
Hum
%
Delta-T
°C
Wind Press
QNH
hPa
Press
MSL
hPa
Rain
since 9 am
mm
Dir
 
Spd
km/h
Gust
km/h
Spd
kts
Gust
kts
18/11:30pm 28.2 - - - - NE 19 32 10 17 - - 0.0
18/11:00pm 29.3 - - - - NNE 9 15 5 8 - - 0.0
18/10:30pm 29.0 - - - - NE 11 20 6 11 - - 0.0
18/10:00pm 28.5 - - - - WNW 6 9 3 5 - - 0.0
18/09:30pm 28.7 - - - - WNW 7 11 4 6 - - 0.0
18/09:00pm 28.8 - - - - WNW 7 9 4 5 - - 0.0
18/08:30pm 29.0 - - - - W 9 13 5 7 - - 0.0
18/08:00pm 29.1 - - - - W 13 19 7 10 - - 0.0
18/07:30pm 29.2 - - - - W 11 17 6 9 - - 0.0
18/07:00pm 29.5 - - - - WNW 11 17 6 9 - - 0.0
18/06:30pm 29.9 - - - - W 17 24 9 13 - - 0.0
18/06:00pm 30.8 - - - - WNW 19 24 10 13 - - 0.0
18/05:30pm 31.6 - - - - WNW 17 26 9 14 - - 0.0
18/05:00pm 32.3 - - - - W 20 28 11 15 - - 0.0
18/04:30pm 32.4 - - - - W 19 30 10 16 - - 0.0
18/04:00pm 32.6 - - - - W 20 28 11 15 - - 0.0
18/03:30pm 33.3 - - - - W 20 30 11 16 - - 0.0
18/03:00pm 33.5 - - - - W 19 30 10 16 - - 0.0
18/02:30pm 33.5 - - - - W 20 32 11 17 - - 0.0
18/02:00pm 33.9 - - - - W 19 28 10 15 - - 0.0
18/01:30pm 33.5 - - - - WSW 19 28 10 15 - - 0.0
18/01:00pm 33.9 - - - - WSW 20 28 11 15 - - 0.0
18/12:30pm 34.2 - - - - W 19 32 10 17 - - 0.0
18/12:00pm 33.6 - - - - W 19 32 10 17 - - 0.0
18/11:30am 34.0 - - - - W 15 24 8 13 - - 0.0
18/11:00am 33.3 - - - - W 13 24 7 13 - - 0.0
18/10:30am 32.7 - - - - W 13 22 7 12 - - 0.0
18/10:00am 33.0 - - - - WSW 15 22 8 12 - - 0.0
18/09:30am 32.1 - - - - W 15 28 8 15 - - 0.0
18/09:00am 32.5 - - - - SW 13 24 7 13 - - 0.0
18/08:30am 32.0 - - - - WSW 13 19 7 10 - - 0.0

Other Formats:

Comma delimited format used in spreadsheet applications
http://www.bom.gov.au/fwo/IDW60801/IDW60801.95204.axf

JavaScript Object Notation format (JSON) in row-major order
http://www.bom.gov.au/fwo/IDW60801/IDW60801.95204.json